Flight Briefing for CPX242

Departure Arrival
Huntsville International Airport (KHSV)
Click to view FAA NOTAMS
Chicago/Rockford International Airport (KRFD)
Click to view FAA NOTAMS
Departure Time Arrival Time
N/A N/A
Aircraft Distance
B767-300BDSF 466nm
Departure METAR Arrival METAR
KHSV 181453Z 02013G19KT 10SM CLR 09/M03 A3038 RMK AO2 SLP287 T00941033 53025 KRFD 181534Z 30004KT 10SM BKN013 02/M02 A3040 RMK AO2 T00221022
Suggested Route
RQZ BNA J73 GUIDO JOT


View recent IFR Routes data
Notes



Charts and Procedures

Charts for KHSV
No chart available
Charts for KRFD
No chart available

Windy.com Weather Map